sensor_id;sensor_type;location;lat;lon;timestamp;temperature;humidity
35531;DHT22;21637;53.352;-6.356;2022-07-09T00:02:09;18.10;99.90
35531;DHT22;21637;53.352;-6.356;2022-07-09T00:04:34;18.10;99.90
35531;DHT22;21637;53.352;-6.356;2022-07-09T00:07:00;18.00;99.90
35531;DHT22;21637;53.352;-6.356;2022-07-09T00:09:25;17.90;99.90
35531;DHT22;21637;53.352;-6.356;2022-07-09T00:11:51;17.90;99.90
35531;DHT22;21637;53.352;-6.356;2022-07-09T00:14:18;17.90;99.90
35531;DHT22;21637;53.352;-6.356;2022-07-09T00:16:43;17.90;99.90
35531;DHT22;21637;53.352;-6.356;2022-07-09T00:19:09;17.80;99.90
35531;DHT22;21637;53.352;-6.356;2022-07-09T00:21:35;17.70;99.90
35531;DHT22;21637;53.352;-6.356;2022-07-09T00:24:00;17.70;99.90
35531;DHT22;21637;53.352;-6.356;2022-07-09T00:26:26;17.70;99.90
35531;DHT22;21637;53.352;-6.356;2022-07-09T00:28:51;17.80;99.90
35531;DHT22;21637;53.352;-6.356;2022-07-09T00:31:17;17.70;99.90
35531;DHT22;21637;53.352;-6.356;2022-07-09T00:33:42;17.80;99.90
35531;DHT22;21637;53.352;-6.356;2022-07-09T00:36:08;17.80;99.90
35531;DHT22;21637;53.352;-6.356;2022-07-09T00:38:33;17.90;99.90
35531;DHT22;21637;53.352;-6.356;2022-07-09T00:40:59;17.90;99.90
35531;DHT22;21637;53.352;-6.356;2022-07-09T00:43:25;17.90;99.90
35531;DHT22;21637;53.352;-6.356;2022-07-09T00:45:50;17.90;99.90
35531;DHT22;21637;53.352;-6.356;2022-07-09T00:48:16;17.90;99.90
35531;DHT22;21637;53.352;-6.356;2022-07-09T00:50:42;18.00;99.90
35531;DHT22;21637;53.352;-6.356;2022-07-09T00:53:26;18.00;99.90
35531;DHT22;21637;53.352;-6.356;2022-07-09T00:55:52;18.00;99.90
35531;DHT22;21637;53.352;-6.356;2022-07-09T00:58:18;18.10;99.90
35531;DHT22;21637;53.352;-6.356;2022-07-09T01:00:45;18.10;99.90
35531;DHT22;21637;53.352;-6.356;2022-07-09T01:03:11;18.10;99.90
35531;DHT22;21637;53.352;-6.356;2022-07-09T01:05:36;18.10;99.90
35531;DHT22;21637;53.352;-6.356;2022-07-09T01:08:05;18.20;99.90
35531;DHT22;21637;53.352;-6.356;2022-07-09T01:10:32;18.20;99.90
35531;DHT22;21637;53.352;-6.356;2022-07-09T01:12:58;18.10;99.90
35531;DHT22;21637;53.352;-6.356;2022-07-09T01:15:24;18.10;99.90
35531;DHT22;21637;53.352;-6.356;2022-07-09T01:17:50;18.10;99.90
35531;DHT22;21637;53.352;-6.356;2022-07-09T01:20:23;18.10;99.90
35531;DHT22;21637;53.352;-6.356;2022-07-09T01:22:49;18.00;99.90
35531;DHT22;21637;53.352;-6.356;2022-07-09T01:25:16;18.00;99.90
35531;DHT22;21637;53.352;-6.356;2022-07-09T01:27:42;18.00;99.90
35531;DHT22;21637;53.352;-6.356;2022-07-09T01:30:07;18.00;99.90
35531;DHT22;21637;53.352;-6.356;2022-07-09T01:32:33;18.00;99.90
35531;DHT22;21637;53.352;-6.356;2022-07-09T01:34:58;17.90;99.90
35531;DHT22;21637;53.352;-6.356;2022-07-09T01:37:24;17.90;99.90
35531;DHT22;21637;53.352;-6.356;2022-07-09T01:39:50;17.90;99.90
35531;DHT22;21637;53.352;-6.356;2022-07-09T01:42:18;17.80;99.90
35531;DHT22;21637;53.352;-6.356;2022-07-09T01:44:45;17.90;99.90
35531;DHT22;21637;53.352;-6.356;2022-07-09T01:47:10;17.90;99.90
35531;DHT22;21637;53.352;-6.356;2022-07-09T01:49:36;17.90;99.90
35531;DHT22;21637;53.352;-6.356;2022-07-09T01:52:03;18.00;99.90
35531;DHT22;21637;53.352;-6.356;2022-07-09T01:54:29;17.90;99.90
35531;DHT22;21637;53.352;-6.356;2022-07-09T01:56:54;17.90;99.90
35531;DHT22;21637;53.352;-6.356;2022-07-09T01:59:20;18.00;99.90
35531;DHT22;21637;53.352;-6.356;2022-07-09T02:01:45;17.90;99.90
35531;DHT22;21637;53.352;-6.356;2022-07-09T02:04:11;17.90;99.90
35531;DHT22;21637;53.352;-6.356;2022-07-09T02:06:36;17.90;99.90
35531;DHT22;21637;53.352;-6.356;2022-07-09T02:09:03;17.80;99.90
35531;DHT22;21637;53.352;-6.356;2022-07-09T02:11:28;17.80;99.90
35531;DHT22;21637;53.352;-6.356;2022-07-09T02:13:54;17.80;99.90
35531;DHT22;21637;53.352;-6.356;2022-07-09T02:16:19;17.80;99.90
35531;DHT22;21637;53.352;-6.356;2022-07-09T02:18:45;17.80;99.90
35531;DHT22;21637;53.352;-6.356;2022-07-09T02:21:10;17.80;99.90
35531;DHT22;21637;53.352;-6.356;2022-07-09T02:23:36;17.80;99.90
35531;DHT22;21637;53.352;-6.356;2022-07-09T02:26:02;17.80;99.90
35531;DHT22;21637;53.352;-6.356;2022-07-09T02:28:28;17.70;99.90
35531;DHT22;21637;53.352;-6.356;2022-07-09T02:30:53;17.70;99.90
35531;DHT22;21637;53.352;-6.356;2022-07-09T02:33:20;17.70;99.90
35531;DHT22;21637;53.352;-6.356;2022-07-09T02:35:46;17.70;99.90
35531;DHT22;21637;53.352;-6.356;2022-07-09T02:38:11;17.70;99.90
35531;DHT22;21637;53.352;-6.356;2022-07-09T02:40:37;17.70;99.90
35531;DHT22;21637;53.352;-6.356;2022-07-09T02:43:02;17.60;99.90
35531;DHT22;21637;53.352;-6.356;2022-07-09T02:45:28;17.70;99.90
35531;DHT22;21637;53.352;-6.356;2022-07-09T02:47:54;17.60;99.90
35531;DHT22;21637;53.352;-6.356;2022-07-09T02:50:19;17.60;99.90
35531;DHT22;21637;53.352;-6.356;2022-07-09T02:52:45;17.60;99.90
35531;DHT22;21637;53.352;-6.356;2022-07-09T02:55:11;17.60;99.90
35531;DHT22;21637;53.352;-6.356;2022-07-09T02:57:36;17.60;99.90
35531;DHT22;21637;53.352;-6.356;2022-07-09T03:00:02;17.60;99.90
35531;DHT22;21637;53.352;-6.356;2022-07-09T03:02:28;17.60;99.90
35531;DHT22;21637;53.352;-6.356;2022-07-09T03:04:54;17.50;99.90
35531;DHT22;21637;53.352;-6.356;2022-07-09T03:07:19;17.50;99.90
35531;DHT22;21637;53.352;-6.356;2022-07-09T03:09:45;17.60;99.90
35531;DHT22;21637;53.352;-6.356;2022-07-09T03:12:10;17.50;99.90
35531;DHT22;21637;53.352;-6.356;2022-07-09T03:14:36;17.50;99.90
35531;DHT22;21637;53.352;-6.356;2022-07-09T03:17:01;17.50;99.90
35531;DHT22;21637;53.352;-6.356;2022-07-09T03:19:27;17.50;99.90
35531;DHT22;21637;53.352;-6.356;2022-07-09T03:21:53;17.60;99.90
35531;DHT22;21637;53.352;-6.356;2022-07-09T03:24:18;17.50;99.90
35531;DHT22;21637;53.352;-6.356;2022-07-09T03:26:44;17.60;99.90
35531;DHT22;21637;53.352;-6.356;2022-07-09T03:29:09;17.60;99.90
35531;DHT22;21637;53.352;-6.356;2022-07-09T03:31:35;17.60;99.90
35531;DHT22;21637;53.352;-6.356;2022-07-09T03:34:01;17.60;99.90
35531;DHT22;21637;53.352;-6.356;2022-07-09T03:36:26;17.60;99.90
35531;DHT22;21637;53.352;-6.356;2022-07-09T03:38:52;17.60;99.90
35531;DHT22;21637;53.352;-6.356;2022-07-09T03:41:17;17.70;99.90
35531;DHT22;21637;53.352;-6.356;2022-07-09T03:43:43;17.60;99.90
35531;DHT22;21637;53.352;-6.356;2022-07-09T03:46:09;17.60;99.90
35531;DHT22;21637;53.352;-6.356;2022-07-09T03:48:34;17.70;99.90
35531;DHT22;21637;53.352;-6.356;2022-07-09T03:51:00;17.70;99.90
35531;DHT22;21637;53.352;-6.356;2022-07-09T03:53:25;17.70;99.90
35531;DHT22;21637;53.352;-6.356;2022-07-09T03:55:51;17.70;99.90
35531;DHT22;21637;53.352;-6.356;2022-07-09T03:58:16;17.70;99.90
35531;DHT22;21637;53.352;-6.356;2022-07-09T04:00:42;17.70;99.90
35531;DHT22;21637;53.352;-6.356;2022-07-09T04:03:07;17.60;99.90
35531;DHT22;21637;53.352;-6.356;2022-07-09T04:05:33;17.50;99.90
35531;DHT22;21637;53.352;-6.356;2022-07-09T04:07:59;17.60;99.90
35531;DHT22;21637;53.352;-6.356;2022-07-09T04:10:24;17.50;99.90
35531;DHT22;21637;53.352;-6.356;2022-07-09T04:12:50;17.50;99.90
35531;DHT22;21637;53.352;-6.356;2022-07-09T04:15:15;17.50;99.90
35531;DHT22;21637;53.352;-6.356;2022-07-09T04:17:41;17.50;99.90
35531;DHT22;21637;53.352;-6.356;2022-07-09T04:20:07;17.50;99.90
35531;DHT22;21637;53.352;-6.356;2022-07-09T04:22:32;17.50;99.90
35531;DHT22;21637;53.352;-6.356;2022-07-09T04:24:58;17.50;99.90
35531;DHT22;21637;53.352;-6.356;2022-07-09T04:27:24;17.40;99.90
35531;DHT22;21637;53.352;-6.356;2022-07-09T04:29:50;17.50;99.90
35531;DHT22;21637;53.352;-6.356;2022-07-09T04:32:15;17.40;99.90
35531;DHT22;21637;53.352;-6.356;2022-07-09T04:34:41;17.40;99.90
35531;DHT22;21637;53.352;-6.356;2022-07-09T04:37:07;17.40;99.90
35531;DHT22;21637;53.352;-6.356;2022-07-09T04:39:32;17.40;99.90
35531;DHT22;21637;53.352;-6.356;2022-07-09T04:41:58;17.40;99.90
35531;DHT22;21637;53.352;-6.356;2022-07-09T04:44:24;17.30;99.90
35531;DHT22;21637;53.352;-6.356;2022-07-09T04:46:49;17.30;99.90
35531;DHT22;21637;53.352;-6.356;2022-07-09T04:49:15;17.30;99.90
35531;DHT22;21637;53.352;-6.356;2022-07-09T04:51:40;17.40;99.90
35531;DHT22;21637;53.352;-6.356;2022-07-09T04:54:06;17.40;99.90
35531;DHT22;21637;53.352;-6.356;2022-07-09T04:56:32;17.40;99.90
35531;DHT22;21637;53.352;-6.356;2022-07-09T04:58:57;17.40;99.90
35531;DHT22;21637;53.352;-6.356;2022-07-09T05:01:25;17.40;99.90
35531;DHT22;21637;53.352;-6.356;2022-07-09T05:03:51;17.40;99.90
35531;DHT22;21637;53.352;-6.356;2022-07-09T05:06:17;17.40;99.90
35531;DHT22;21637;53.352;-6.356;2022-07-09T05:08:44;17.40;99.90
35531;DHT22;21637;53.352;-6.356;2022-07-09T05:11:09;17.40;99.90
35531;DHT22;21637;53.352;-6.356;2022-07-09T05:13:37;17.40;99.90
35531;DHT22;21637;53.352;-6.356;2022-07-09T05:16:05;17.40;99.90
35531;DHT22;21637;53.352;-6.356;2022-07-09T05:18:31;17.40;99.90
35531;DHT22;21637;53.352;-6.356;2022-07-09T05:20:56;17.30;99.90
35531;DHT22;21637;53.352;-6.356;2022-07-09T05:23:22;17.30;99.90
35531;DHT22;21637;53.352;-6.356;2022-07-09T05:25:48;17.30;99.90
35531;DHT22;21637;53.352;-6.356;2022-07-09T05:28:13;17.30;99.90
35531;DHT22;21637;53.352;-6.356;2022-07-09T05:30:39;17.40;99.90
35531;DHT22;21637;53.352;-6.356;2022-07-09T05:33:05;17.30;99.90
35531;DHT22;21637;53.352;-6.356;2022-07-09T05:35:31;17.30;99.90
35531;DHT22;21637;53.352;-6.356;2022-07-09T05:37:56;17.30;99.90
35531;DHT22;21637;53.352;-6.356;2022-07-09T05:40:22;17.30;99.90
35531;DHT22;21637;53.352;-6.356;2022-07-09T05:42:47;17.30;99.90
35531;DHT22;21637;53.352;-6.356;2022-07-09T05:45:13;17.30;99.90
35531;DHT22;21637;53.352;-6.356;2022-07-09T05:47:39;17.40;99.90
35531;DHT22;21637;53.352;-6.356;2022-07-09T05:50:04;17.30;99.90
35531;DHT22;21637;53.352;-6.356;2022-07-09T05:52:30;17.30;99.90
35531;DHT22;21637;53.352;-6.356;2022-07-09T05:54:56;17.40;99.90
35531;DHT22;21637;53.352;-6.356;2022-07-09T05:57:21;17.40;99.90
35531;DHT22;21637;53.352;-6.356;2022-07-09T05:59:47;17.40;99.90
35531;DHT22;21637;53.352;-6.356;2022-07-09T06:02:12;17.50;99.90
35531;DHT22;21637;53.352;-6.356;2022-07-09T06:04:38;17.50;99.90
35531;DHT22;21637;53.352;-6.356;2022-07-09T06:07:03;17.50;99.90
35531;DHT22;21637;53.352;-6.356;2022-07-09T06:09:29;17.60;99.90
35531;DHT22;21637;53.352;-6.356;2022-07-09T06:11:55;17.70;99.90
35531;DHT22;21637;53.352;-6.356;2022-07-09T06:14:20;17.70;99.90
35531;DHT22;21637;53.352;-6.356;2022-07-09T06:16:46;17.70;99.90
35531;DHT22;21637;53.352;-6.356;2022-07-09T06:19:12;17.70;99.90
35531;DHT22;21637;53.352;-6.356;2022-07-09T06:21:38;17.70;99.90
35531;DHT22;21637;53.352;-6.356;2022-07-09T06:24:04;17.60;99.90
35531;DHT22;21637;53.352;-6.356;2022-07-09T06:26:30;17.70;99.90
35531;DHT22;21637;53.352;-6.356;2022-07-09T06:28:56;17.70;99.90
35531;DHT22;21637;53.352;-6.356;2022-07-09T06:31:22;17.70;99.90
35531;DHT22;21637;53.352;-6.356;2022-07-09T06:33:48;17.70;99.90
35531;DHT22;21637;53.352;-6.356;2022-07-09T06:36:14;17.80;99.90
35531;DHT22;21637;53.352;-6.356;2022-07-09T06:38:39;17.70;99.90
35531;DHT22;21637;53.352;-6.356;2022-07-09T06:41:23;17.70;99.90
35531;DHT22;21637;53.352;-6.356;2022-07-09T06:43:49;17.80;99.90
35531;DHT22;21637;53.352;-6.356;2022-07-09T06:46:15;17.80;99.90
35531;DHT22;21637;53.352;-6.356;2022-07-09T06:48:40;17.70;99.90
35531;DHT22;21637;53.352;-6.356;2022-07-09T06:51:06;17.80;99.90
35531;DHT22;21637;53.352;-6.356;2022-07-09T06:53:31;17.80;99.90
35531;DHT22;21637;53.352;-6.356;2022-07-09T06:55:57;17.80;99.90
35531;DHT22;21637;53.352;-6.356;2022-07-09T06:58:23;17.80;99.90
35531;DHT22;21637;53.352;-6.356;2022-07-09T07:00:48;17.80;99.90
35531;DHT22;21637;53.352;-6.356;2022-07-09T07:03:14;17.80;99.90
35531;DHT22;21637;53.352;-6.356;2022-07-09T07:05:40;17.80;99.90
35531;DHT22;21637;53.352;-6.356;2022-07-09T07:08:06;17.80;99.90
35531;DHT22;21637;53.352;-6.356;2022-07-09T07:10:31;17.90;99.90
35531;DHT22;21637;53.352;-6.356;2022-07-09T07:12:57;17.90;99.90
35531;DHT22;21637;53.352;-6.356;2022-07-09T07:15:23;18.00;99.90
35531;DHT22;21637;53.352;-6.356;2022-07-09T07:17:48;18.00;99.90
35531;DHT22;21637;53.352;-6.356;2022-07-09T07:20:14;18.00;99.90
35531;DHT22;21637;53.352;-6.356;2022-07-09T07:22:40;18.10;99.90
35531;DHT22;21637;53.352;-6.356;2022-07-09T07:25:05;18.10;99.90
35531;DHT22;21637;53.352;-6.356;2022-07-09T07:27:31;18.20;99.90
35531;DHT22;21637;53.352;-6.356;2022-07-09T07:29:57;18.30;99.90
35531;DHT22;21637;53.352;-6.356;2022-07-09T07:32:22;18.40;99.90
35531;DHT22;21637;53.352;-6.356;2022-07-09T07:34:48;18.40;99.90
35531;DHT22;21637;53.352;-6.356;2022-07-09T07:37:13;18.40;99.90
35531;DHT22;21637;53.352;-6.356;2022-07-09T07:39:39;18.40;99.90
35531;DHT22;21637;53.352;-6.356;2022-07-09T07:42:04;18.40;99.90
35531;DHT22;21637;53.352;-6.356;2022-07-09T07:44:32;18.40;99.90
35531;DHT22;21637;53.352;-6.356;2022-07-09T07:46:58;18.50;99.90
35531;DHT22;21637;53.352;-6.356;2022-07-09T07:49:23;18.60;99.90
35531;DHT22;21637;53.352;-6.356;2022-07-09T07:51:49;18.60;99.90
35531;DHT22;21637;53.352;-6.356;2022-07-09T07:54:15;18.70;99.90
35531;DHT22;21637;53.352;-6.356;2022-07-09T07:56:40;18.70;99.90
35531;DHT22;21637;53.352;-6.356;2022-07-09T07:59:06;18.70;99.90
35531;DHT22;21637;53.352;-6.356;2022-07-09T08:01:32;18.60;99.90
35531;DHT22;21637;53.352;-6.356;2022-07-09T08:03:58;18.70;99.90
35531;DHT22;21637;53.352;-6.356;2022-07-09T08:06:23;18.70;99.90
35531;DHT22;21637;53.352;-6.356;2022-07-09T08:08:49;18.60;99.90
35531;DHT22;21637;53.352;-6.356;2022-07-09T08:11:15;18.70;99.90
35531;DHT22;21637;53.352;-6.356;2022-07-09T08:13:41;18.70;99.90
35531;DHT22;21637;53.352;-6.356;2022-07-09T08:16:06;18.70;99.90
35531;DHT22;21637;53.352;-6.356;2022-07-09T08:18:32;18.80;99.90
35531;DHT22;21637;53.352;-6.356;2022-07-09T08:20:58;18.80;99.90
35531;DHT22;21637;53.352;-6.356;2022-07-09T08:23:23;18.80;99.90
35531;DHT22;21637;53.352;-6.356;2022-07-09T08:25:49;18.80;99.90
35531;DHT22;21637;53.352;-6.356;2022-07-09T08:28:15;18.90;99.90
35531;DHT22;21637;53.352;-6.356;2022-07-09T08:30:41;19.00;99.90
35531;DHT22;21637;53.352;-6.356;2022-07-09T08:33:06;19.10;99.90
35531;DHT22;21637;53.352;-6.356;2022-07-09T08:35:32;19.10;99.90
35531;DHT22;21637;53.352;-6.356;2022-07-09T08:37:58;19.20;99.90
35531;DHT22;21637;53.352;-6.356;2022-07-09T08:40:25;19.30;99.90
35531;DHT22;21637;53.352;-6.356;2022-07-09T08:42:50;19.50;99.90
35531;DHT22;21637;53.352;-6.356;2022-07-09T08:45:18;19.60;99.90
35531;DHT22;21637;53.352;-6.356;2022-07-09T08:47:44;19.80;99.90
35531;DHT22;21637;53.352;-6.356;2022-07-09T08:50:09;19.90;99.90
35531;DHT22;21637;53.352;-6.356;2022-07-09T08:52:36;20.10;99.90
35531;DHT22;21637;53.352;-6.356;2022-07-09T08:55:03;20.10;99.90
35531;DHT22;21637;53.352;-6.356;2022-07-09T08:57:28;20.20;99.90
35531;DHT22;21637;53.352;-6.356;2022-07-09T08:59:55;20.30;99.90
35531;DHT22;21637;53.352;-6.356;2022-07-09T09:02:20;20.30;99.90
35531;DHT22;21637;53.352;-6.356;2022-07-09T09:04:46;20.30;99.90
35531;DHT22;21637;53.352;-6.356;2022-07-09T09:07:15;20.30;99.90
35531;DHT22;21637;53.352;-6.356;2022-07-09T09:09:41;20.30;99.90
35531;DHT22;21637;53.352;-6.356;2022-07-09T09:12:08;20.40;99.90
35531;DHT22;21637;53.352;-6.356;2022-07-09T09:14:33;20.40;99.90
35531;DHT22;21637;53.352;-6.356;2022-07-09T09:17:08;20.50;99.90
35531;DHT22;21637;53.352;-6.356;2022-07-09T09:19:40;20.60;99.90
35531;DHT22;21637;53.352;-6.356;2022-07-09T09:22:06;20.70;99.90
35531;DHT22;21637;53.352;-6.356;2022-07-09T09:24:32;20.70;99.90
35531;DHT22;21637;53.352;-6.356;2022-07-09T09:26:59;20.90;99.90
35531;DHT22;21637;53.352;-6.356;2022-07-09T09:29:25;20.90;99.90
35531;DHT22;21637;53.352;-6.356;2022-07-09T09:31:51;20.90;99.90
35531;DHT22;21637;53.352;-6.356;2022-07-09T09:34:17;20.80;99.90
35531;DHT22;21637;53.352;-6.356;2022-07-09T09:36:50;20.70;99.90
35531;DHT22;21637;53.352;-6.356;2022-07-09T09:39:25;20.70;99.90
35531;DHT22;21637;53.352;-6.356;2022-07-09T09:41:54;20.60;99.90
35531;DHT22;21637;53.352;-6.356;2022-07-09T09:44:29;20.60;99.90
35531;DHT22;21637;53.352;-6.356;2022-07-09T09:46:57;20.60;99.90
35531;DHT22;21637;53.352;-6.356;2022-07-09T09:49:23;20.60;99.90
35531;DHT22;21637;53.352;-6.356;2022-07-09T09:54:24;20.50;99.90
35531;DHT22;21637;53.352;-6.356;2022-07-09T09:56:49;20.50;99.90
35531;DHT22;21637;53.352;-6.356;2022-07-09T09:59:15;20.50;99.90
35531;DHT22;21637;53.352;-6.356;2022-07-09T10:01:41;20.60;99.90
35531;DHT22;21637;53.352;-6.356;2022-07-09T10:04:08;20.60;99.90
35531;DHT22;21637;53.352;-6.356;2022-07-09T10:06:33;20.60;99.90
35531;DHT22;21637;53.352;-6.356;2022-07-09T10:09:00;20.70;99.90
35531;DHT22;21637;53.352;-6.356;2022-07-09T10:11:36;20.80;99.90
35531;DHT22;21637;53.352;-6.356;2022-07-09T10:14:02;20.70;99.90
35531;DHT22;21637;53.352;-6.356;2022-07-09T10:16:32;20.70;99.90
35531;DHT22;21637;53.352;-6.356;2022-07-09T10:18:57;20.70;99.90
35531;DHT22;21637;53.352;-6.356;2022-07-09T10:21:33;20.80;99.90
35531;DHT22;21637;53.352;-6.356;2022-07-09T10:23:58;20.90;99.90
35531;DHT22;21637;53.352;-6.356;2022-07-09T10:26:34;20.90;99.90
35531;DHT22;21637;53.352;-6.356;2022-07-09T10:28:59;20.90;99.90
35531;DHT22;21637;53.352;-6.356;2022-07-09T10:31:25;20.90;99.90
35531;DHT22;21637;53.352;-6.356;2022-07-09T10:33:53;20.90;99.90
35531;DHT22;21637;53.352;-6.356;2022-07-09T10:36:25;21.00;99.90
35531;DHT22;21637;53.352;-6.356;2022-07-09T10:38:54;21.00;99.90
35531;DHT22;21637;53.352;-6.356;2022-07-09T10:41:23;21.20;99.90
35531;DHT22;21637;53.352;-6.356;2022-07-09T10:43:50;21.50;99.90
35531;DHT22;21637;53.352;-6.356;2022-07-09T10:46:15;21.80;99.90
35531;DHT22;21637;53.352;-6.356;2022-07-09T10:48:44;21.90;99.90
35531;DHT22;21637;53.352;-6.356;2022-07-09T10:51:19;22.00;99.90
35531;DHT22;21637;53.352;-6.356;2022-07-09T10:53:45;22.10;99.90
35531;DHT22;21637;53.352;-6.356;2022-07-09T10:56:15;22.10;99.90
35531;DHT22;21637;53.352;-6.356;2022-07-09T10:58:41;22.20;99.90
35531;DHT22;21637;53.352;-6.356;2022-07-09T11:01:10;22.20;99.90
35531;DHT22;21637;53.352;-6.356;2022-07-09T11:03:46;22.20;99.90
35531;DHT22;21637;53.352;-6.356;2022-07-09T11:06:13;22.20;99.90
35531;DHT22;21637;53.352;-6.356;2022-07-09T11:08:39;22.20;99.90
35531;DHT22;21637;53.352;-6.356;2022-07-09T11:11:04;22.00;99.90
35531;DHT22;21637;53.352;-6.356;2022-07-09T11:13:30;21.90;99.90
35531;DHT22;21637;53.352;-6.356;2022-07-09T11:16:01;22.00;99.90
35531;DHT22;21637;53.352;-6.356;2022-07-09T11:18:27;22.10;99.90
35531;DHT22;21637;53.352;-6.356;2022-07-09T11:20:53;22.10;99.90
35531;DHT22;21637;53.352;-6.356;2022-07-09T11:23:19;22.10;99.90
35531;DHT22;21637;53.352;-6.356;2022-07-09T11:25:45;22.10;99.90
35531;DHT22;21637;53.352;-6.356;2022-07-09T11:28:45;22.10;99.90
35531;DHT22;21637;53.352;-6.356;2022-07-09T11:31:04;22.00;99.90
35531;DHT22;21637;53.352;-6.356;2022-07-09T11:33:30;22.10;99.90
35531;DHT22;21637;53.352;-6.356;2022-07-09T11:36:14;22.20;99.90
35531;DHT22;21637;53.352;-6.356;2022-07-09T11:38:50;22.30;99.90
35531;DHT22;21637;53.352;-6.356;2022-07-09T11:41:16;22.40;99.90
35531;DHT22;21637;53.352;-6.356;2022-07-09T11:43:48;22.40;99.90
35531;DHT22;21637;53.352;-6.356;2022-07-09T11:46:17;22.40;99.90
35531;DHT22;21637;53.352;-6.356;2022-07-09T11:48:50;22.60;99.90
35531;DHT22;21637;53.352;-6.356;2022-07-09T11:51:25;22.90;99.90
35531;DHT22;21637;53.352;-6.356;2022-07-09T11:53:51;22.80;99.90
35531;DHT22;21637;53.352;-6.356;2022-07-09T11:56:17;22.70;99.90
35531;DHT22;21637;53.352;-6.356;2022-07-09T11:58:48;22.60;99.90
35531;DHT22;21637;53.352;-6.356;2022-07-09T12:01:14;22.50;99.90
35531;DHT22;21637;53.352;-6.356;2022-07-09T12:03:45;22.30;99.90
35531;DHT22;21637;53.352;-6.356;2022-07-09T12:06:11;22.10;99.90
35531;DHT22;21637;53.352;-6.356;2022-07-09T12:08:37;22.00;99.90
35531;DHT22;21637;53.352;-6.356;2022-07-09T12:11:02;21.90;99.90
35531;DHT22;21637;53.352;-6.356;2022-07-09T12:13:28;21.90;99.90
35531;DHT22;21637;53.352;-6.356;2022-07-09T12:15:54;22.00;99.90
35531;DHT22;21637;53.352;-6.356;2022-07-09T12:18:20;21.90;99.90
35531;DHT22;21637;53.352;-6.356;2022-07-09T12:20:46;21.90;99.90
35531;DHT22;21637;53.352;-6.356;2022-07-09T12:23:11;22.00;99.90
35531;DHT22;21637;53.352;-6.356;2022-07-09T12:25:37;22.00;99.90
35531;DHT22;21637;53.352;-6.356;2022-07-09T12:28:03;22.00;99.90
35531;DHT22;21637;53.352;-6.356;2022-07-09T12:30:28;22.00;99.90
35531;DHT22;21637;53.352;-6.356;2022-07-09T12:32:57;22.00;99.90
35531;DHT22;21637;53.352;-6.356;2022-07-09T12:35:25;22.00;99.90
35531;DHT22;21637;53.352;-6.356;2022-07-09T12:37:51;22.10;99.90
35531;DHT22;21637;53.352;-6.356;2022-07-09T12:40:16;22.10;99.90
35531;DHT22;21637;53.352;-6.356;2022-07-09T12:42:42;22.10;99.90
35531;DHT22;21637;53.352;-6.356;2022-07-09T12:45:08;22.20;99.90
35531;DHT22;21637;53.352;-6.356;2022-07-09T12:47:35;22.30;99.90
35531;DHT22;21637;53.352;-6.356;2022-07-09T12:50:00;22.50;99.90
35531;DHT22;21637;53.352;-6.356;2022-07-09T12:52:30;22.60;99.90
35531;DHT22;21637;53.352;-6.356;2022-07-09T12:54:58;22.60;99.90
35531;DHT22;21637;53.352;-6.356;2022-07-09T12:57:24;22.50;99.90
35531;DHT22;21637;53.352;-6.356;2022-07-09T12:59:49;22.50;99.90
35531;DHT22;21637;53.352;-6.356;2022-07-09T13:02:15;22.50;99.90
35531;DHT22;21637;53.352;-6.356;2022-07-09T13:04:40;22.60;99.90
35531;DHT22;21637;53.352;-6.356;2022-07-09T13:07:06;22.60;99.90
35531;DHT22;21637;53.352;-6.356;2022-07-09T13:09:32;22.60;99.90
35531;DHT22;21637;53.352;-6.356;2022-07-09T13:11:59;22.60;99.90
35531;DHT22;21637;53.352;-6.356;2022-07-09T13:14:25;22.50;99.90
35531;DHT22;21637;53.352;-6.356;2022-07-09T13:16:50;22.40;99.90
35531;DHT22;21637;53.352;-6.356;2022-07-09T13:19:16;22.50;99.90
35531;DHT22;21637;53.352;-6.356;2022-07-09T13:21:41;22.40;99.90
35531;DHT22;21637;53.352;-6.356;2022-07-09T13:24:07;22.40;99.90
35531;DHT22;21637;53.352;-6.356;2022-07-09T13:26:32;22.50;99.90
35531;DHT22;21637;53.352;-6.356;2022-07-09T13:31:42;22.80;99.90
35531;DHT22;21637;53.352;-6.356;2022-07-09T13:34:08;22.90;99.90
35531;DHT22;21637;53.352;-6.356;2022-07-09T13:36:34;23.00;99.90
35531;DHT22;21637;53.352;-6.356;2022-07-09T13:38:59;23.10;99.90
35531;DHT22;21637;53.352;-6.356;2022-07-09T13:41:25;23.20;99.90
35531;DHT22;21637;53.352;-6.356;2022-07-09T13:43:50;23.30;99.90
35531;DHT22;21637;53.352;-6.356;2022-07-09T13:46:16;23.30;99.90
35531;DHT22;21637;53.352;-6.356;2022-07-09T13:48:42;23.40;99.90
35531;DHT22;21637;53.352;-6.356;2022-07-09T13:51:07;23.50;99.90
35531;DHT22;21637;53.352;-6.356;2022-07-09T13:53:33;23.40;99.90
35531;DHT22;21637;53.352;-6.356;2022-07-09T13:55:58;23.40;99.90
35531;DHT22;21637;53.352;-6.356;2022-07-09T13:58:24;23.40;99.90
35531;DHT22;21637;53.352;-6.356;2022-07-09T14:00:50;23.50;99.90
35531;DHT22;21637;53.352;-6.356;2022-07-09T14:03:15;23.60;99.90
35531;DHT22;21637;53.352;-6.356;2022-07-09T14:05:42;23.60;99.90
35531;DHT22;21637;53.352;-6.356;2022-07-09T14:08:07;23.60;99.90
35531;DHT22;21637;53.352;-6.356;2022-07-09T14:10:33;23.60;99.90
35531;DHT22;21637;53.352;-6.356;2022-07-09T14:12:59;23.70;99.90
35531;DHT22;21637;53.352;-6.356;2022-07-09T14:15:25;23.80;99.90
35531;DHT22;21637;53.352;-6.356;2022-07-09T14:17:50;23.70;99.90
35531;DHT22;21637;53.352;-6.356;2022-07-09T14:20:16;23.60;99.90
35531;DHT22;21637;53.352;-6.356;2022-07-09T14:22:42;23.60;99.90
35531;DHT22;21637;53.352;-6.356;2022-07-09T14:25:07;23.60;99.90
35531;DHT22;21637;53.352;-6.356;2022-07-09T14:27:33;23.70;99.90
35531;DHT22;21637;53.352;-6.356;2022-07-09T14:29:58;23.70;99.90
35531;DHT22;21637;53.352;-6.356;2022-07-09T14:32:24;23.70;99.90
35531;DHT22;21637;53.352;-6.356;2022-07-09T14:34:50;23.40;99.90
35531;DHT22;21637;53.352;-6.356;2022-07-09T14:37:15;23.60;99.90
35531;DHT22;21637;53.352;-6.356;2022-07-09T14:39:41;23.60;99.90
35531;DHT22;21637;53.352;-6.356;2022-07-09T14:42:06;23.50;99.90
35531;DHT22;21637;53.352;-6.356;2022-07-09T14:44:32;23.40;99.90
35531;DHT22;21637;53.352;-6.356;2022-07-09T14:46:58;23.40;99.90
35531;DHT22;21637;53.352;-6.356;2022-07-09T14:49:25;23.40;99.90
35531;DHT22;21637;53.352;-6.356;2022-07-09T14:51:51;23.40;99.90
35531;DHT22;21637;53.352;-6.356;2022-07-09T14:54:17;23.20;99.90
35531;DHT22;21637;53.352;-6.356;2022-07-09T14:56:43;23.10;99.90
35531;DHT22;21637;53.352;-6.356;2022-07-09T14:59:08;23.00;99.90
35531;DHT22;21637;53.352;-6.356;2022-07-09T15:01:34;23.00;99.90
35531;DHT22;21637;53.352;-6.356;2022-07-09T15:04:00;23.00;99.90
35531;DHT22;21637;53.352;-6.356;2022-07-09T15:06:25;22.90;99.90
35531;DHT22;21637;53.352;-6.356;2022-07-09T15:08:51;22.90;99.90
35531;DHT22;21637;53.352;-6.356;2022-07-09T15:11:17;22.90;99.90
35531;DHT22;21637;53.352;-6.356;2022-07-09T15:13:42;22.90;99.90
35531;DHT22;21637;53.352;-6.356;2022-07-09T15:16:08;23.00;99.90